sensor_id;sensor_type;location;lat;lon;timestamp;pressure;altitude;pressure_sealevel;temperature;humidity
3780;BME280;1905;52.482;9.802;2023-06-26T00:00:49;100912.59;;;23.00;64.05
3780;BME280;1905;52.482;9.802;2023-06-26T00:03:18;100908.50;;;22.96;64.01
3780;BME280;1905;52.482;9.802;2023-06-26T00:05:46;100906.06;;;22.93;64.38
3780;BME280;1905;52.482;9.802;2023-06-26T00:08:13;100908.88;;;22.92;63.93
3780;BME280;1905;52.482;9.802;2023-06-26T00:10:41;100904.91;;;22.86;64.43
3780;BME280;1905;52.482;9.802;2023-06-26T00:13:08;100904.38;;;22.83;64.50
3780;BME280;1905;52.482;9.802;2023-06-26T00:15:38;100907.19;;;22.81;64.67
3780;BME280;1905;52.482;9.802;2023-06-26T00:18:06;100900.66;;;22.74;64.71
3780;BME280;1905;52.482;9.802;2023-06-26T00:20:36;100902.63;;;22.72;64.79
3780;BME280;1905;52.482;9.802;2023-06-26T00:23:04;100899.22;;;22.70;64.50
3780;BME280;1905;52.482;9.802;2023-06-26T00:25:34;100895.38;;;22.63;64.56
3780;BME280;1905;52.482;9.802;2023-06-26T00:28:02;100894.38;;;22.64;64.65
3780;BME280;1905;52.482;9.802;2023-06-26T00:30:29;100889.53;;;22.58;64.91
3780;BME280;1905;52.482;9.802;2023-06-26T00:32:57;100892.63;;;22.53;65.31
3780;BME280;1905;52.482;9.802;2023-06-26T00:35:25;100893.75;;;22.51;65.02
3780;BME280;1905;52.482;9.802;2023-06-26T00:37:53;100885.41;;;22.44;65.41
3780;BME280;1905;52.482;9.802;2023-06-26T00:40:21;100885.25;;;22.46;65.26
3780;BME280;1905;52.482;9.802;2023-06-26T00:42:50;100881.16;;;22.42;65.45
3780;BME280;1905;52.482;9.802;2023-06-26T00:45:17;100896.56;;;22.40;65.41
3780;BME280;1905;52.482;9.802;2023-06-26T00:48:04;100885.50;;;22.33;65.51
3780;BME280;1905;52.482;9.802;2023-06-26T00:50:31;100884.91;;;22.30;65.78
3780;BME280;1905;52.482;9.802;2023-06-26T00:53:01;100882.38;;;22.28;65.52
3780;BME280;1905;52.482;9.802;2023-06-26T00:55:29;100884.50;;;22.25;65.33
3780;BME280;1905;52.482;9.802;2023-06-26T00:57:57;100878.66;;;22.20;65.69
3780;BME280;1905;52.482;9.802;2023-06-26T01:00:27;100876.94;;;22.19;66.04
3780;BME280;1905;52.482;9.802;2023-06-26T01:02:56;100867.47;;;22.15;65.90
3780;BME280;1905;52.482;9.802;2023-06-26T01:05:26;100867.72;;;22.12;66.14
3780;BME280;1905;52.482;9.802;2023-06-26T01:07:55;100872.78;;;22.05;65.77
3780;BME280;1905;52.482;9.802;2023-06-26T01:10:25;100865.56;;;22.06;66.19
3780;BME280;1905;52.482;9.802;2023-06-26T01:12:55;100866.81;;;22.02;65.93
3780;BME280;1905;52.482;9.802;2023-06-26T01:15:24;100862.72;;;21.98;66.15
3780;BME280;1905;52.482;9.802;2023-06-26T01:17:51;100859.31;;;21.96;65.70
3780;BME280;1905;52.482;9.802;2023-06-26T01:20:20;100855.88;;;21.93;66.36
3780;BME280;1905;52.482;9.802;2023-06-26T01:22:57;100852.50;;;21.91;66.03
3780;BME280;1905;52.482;9.802;2023-06-26T01:25:37;100844.69;;;21.88;66.34
3780;BME280;1905;52.482;9.802;2023-06-26T01:28:11;100843.97;;;21.86;66.10
3780;BME280;1905;52.482;9.802;2023-06-26T01:30:43;100842.50;;;21.82;66.39
3780;BME280;1905;52.482;9.802;2023-06-26T01:33:12;100840.09;;;21.79;66.32
3780;BME280;1905;52.482;9.802;2023-06-26T01:35:40;100843.88;;;21.77;66.56
3780;BME280;1905;52.482;9.802;2023-06-26T01:38:15;100847.69;;;21.74;66.46
3780;BME280;1905;52.482;9.802;2023-06-26T01:40:43;100839.94;;;21.71;66.49
3780;BME280;1905;52.482;9.802;2023-06-26T01:43:16;100841.00;;;21.69;66.42
3780;BME280;1905;52.482;9.802;2023-06-26T01:45:48;100837.88;;;21.64;66.32
3780;BME280;1905;52.482;9.802;2023-06-26T01:48:22;100838.75;;;21.64;66.29
3780;BME280;1905;52.482;9.802;2023-06-26T01:50:52;100831.94;;;21.60;66.44
3780;BME280;1905;52.482;9.802;2023-06-26T01:53:24;100825.97;;;21.57;66.71
3780;BME280;1905;52.482;9.802;2023-06-26T01:55:55;100827.09;;;21.54;66.78
3780;BME280;1905;52.482;9.802;2023-06-26T01:58:28;100819.16;;;21.53;66.58
3780;BME280;1905;52.482;9.802;2023-06-26T02:00:57;100818.44;;;21.51;66.66
3780;BME280;1905;52.482;9.802;2023-06-26T02:03:24;100816.00;;;21.48;66.64
3780;BME280;1905;52.482;9.802;2023-06-26T02:05:52;100819.81;;;21.45;66.74
3780;BME280;1905;52.482;9.802;2023-06-26T02:10:49;100804.97;;;21.41;66.76
3780;BME280;1905;52.482;9.802;2023-06-26T02:13:16;100796.91;;;21.41;67.09
3780;BME280;1905;52.482;9.802;2023-06-26T02:15:45;100805.47;;;21.35;67.07
3780;BME280;1905;52.482;9.802;2023-06-26T02:18:13;100799.50;;;21.31;67.06
3780;BME280;1905;52.482;9.802;2023-06-26T02:20:40;100798.66;;;21.31;66.96
3780;BME280;1905;52.482;9.802;2023-06-26T02:23:12;100808.84;;;21.27;67.08
3780;BME280;1905;52.482;9.802;2023-06-26T02:25:40;100798.91;;;21.28;67.15
3780;BME280;1905;52.482;9.802;2023-06-26T02:28:09;100802.00;;;21.23;67.08
3780;BME280;1905;52.482;9.802;2023-06-26T02:30:36;100805.09;;;21.19;67.33
3780;BME280;1905;52.482;9.802;2023-06-26T02:33:05;100800.00;;;21.16;67.22
3780;BME280;1905;52.482;9.802;2023-06-26T02:35:33;100796.59;;;21.14;67.37
3780;BME280;1905;52.482;9.802;2023-06-26T02:38:01;100800.50;;;21.10;67.40
3780;BME280;1905;52.482;9.802;2023-06-26T02:40:28;100791.47;;;21.11;67.44
3780;BME280;1905;52.482;9.802;2023-06-26T02:42:57;100787.06;;;21.10;67.77
3780;BME280;1905;52.482;9.802;2023-06-26T02:45:25;100793.69;;;21.06;67.43
3780;BME280;1905;52.482;9.802;2023-06-26T02:47:54;100784.88;;;21.04;67.78
3780;BME280;1905;52.482;9.802;2023-06-26T02:50:23;100783.19;;;21.03;67.71
3780;BME280;1905;52.482;9.802;2023-06-26T02:53:09;100781.47;;;21.02;67.25
3780;BME280;1905;52.482;9.802;2023-06-26T02:55:39;100767.59;;;20.97;67.64
3780;BME280;1905;52.482;9.802;2023-06-26T02:58:08;100775.91;;;20.94;67.81
3780;BME280;1905;52.482;9.802;2023-06-26T03:00:37;100767.84;;;20.94;67.79
3780;BME280;1905;52.482;9.802;2023-06-26T03:03:09;100768.25;;;20.89;67.79
3780;BME280;1905;52.482;9.802;2023-06-26T03:05:38;100765.56;;;20.89;67.76
3780;BME280;1905;52.482;9.802;2023-06-26T03:08:06;100766.69;;;20.87;67.78
3780;BME280;1905;52.482;9.802;2023-06-26T03:10:33;100765.81;;;20.86;68.01
3780;BME280;1905;52.482;9.802;2023-06-26T03:13:01;100766.94;;;20.84;67.84
3780;BME280;1905;52.482;9.802;2023-06-26T03:15:29;100760.84;;;20.82;67.97
3780;BME280;1905;52.482;9.802;2023-06-26T03:17:56;100761.81;;;20.81;68.17
3780;BME280;1905;52.482;9.802;2023-06-26T03:20:27;100768.06;;;20.81;68.16
3780;BME280;1905;52.482;9.802;2023-06-26T03:22:57;100760.66;;;20.73;67.68
3780;BME280;1905;52.482;9.802;2023-06-26T03:25:25;100759.06;;;20.71;67.87
3780;BME280;1905;52.482;9.802;2023-06-26T03:28:19;100752.97;;;20.69;68.14
3780;BME280;1905;52.482;9.802;2023-06-26T03:30:46;100755.41;;;20.72;68.03
3780;BME280;1905;52.482;9.802;2023-06-26T03:33:15;100755.53;;;20.70;67.68
3780;BME280;1905;52.482;9.802;2023-06-26T03:35:43;100745.91;;;20.68;67.88
3780;BME280;1905;52.482;9.802;2023-06-26T03:38:14;100747.03;;;20.65;67.91
3780;BME280;1905;52.482;9.802;2023-06-26T03:40:43;100746.28;;;20.63;68.24
3780;BME280;1905;52.482;9.802;2023-06-26T03:43:11;100750.69;;;20.64;68.13
3780;BME280;1905;52.482;9.802;2023-06-26T03:46:01;100744.72;;;20.61;68.20
3780;BME280;1905;52.482;9.802;2023-06-26T03:48:29;100752.16;;;20.57;68.21
3780;BME280;1905;52.482;9.802;2023-06-26T03:50:57;100744.97;;;20.58;68.11
3780;BME280;1905;52.482;9.802;2023-06-26T03:53:26;100749.47;;;20.57;68.27
3780;BME280;1905;52.482;9.802;2023-06-26T03:55:55;100751.44;;;20.55;68.16
3780;BME280;1905;52.482;9.802;2023-06-26T03:58:22;100750.59;;;20.55;68.17
3780;BME280;1905;52.482;9.802;2023-06-26T04:00:51;100745.50;;;20.52;68.44
3780;BME280;1905;52.482;9.802;2023-06-26T04:03:19;100744.41;;;20.54;68.18
3780;BME280;1905;52.482;9.802;2023-06-26T04:05:47;100746.09;;;20.55;67.82
3780;BME280;1905;52.482;9.802;2023-06-26T04:08:15;100746.22;;;20.54;68.31
3780;BME280;1905;52.482;9.802;2023-06-26T04:10:43;100741.81;;;20.53;68.05
3780;BME280;1905;52.482;9.802;2023-06-26T04:13:11;100741.81;;;20.53;67.80
3780;BME280;1905;52.482;9.802;2023-06-26T04:15:40;100737.31;;;20.53;67.65
3780;BME280;1905;52.482;9.802;2023-06-26T04:18:08;100743.66;;;20.52;67.88
3780;BME280;1905;52.482;9.802;2023-06-26T04:20:38;100736.84;;;20.48;68.15
3780;BME280;1905;52.482;9.802;2023-06-26T04:23:06;100738.44;;;20.51;67.89
3780;BME280;1905;52.482;9.802;2023-06-26T04:25:34;100731.09;;;20.53;67.42
3780;BME280;1905;52.482;9.802;2023-06-26T04:28:05;100733.91;;;20.51;67.60
3780;BME280;1905;52.482;9.802;2023-06-26T04:30:33;100722.94;;;20.54;67.04
3780;BME280;1905;52.482;9.802;2023-06-26T04:33:01;100726.31;;;20.56;67.45
3780;BME280;1905;52.482;9.802;2023-06-26T04:35:28;100722.63;;;20.57;67.11
3780;BME280;1905;52.482;9.802;2023-06-26T04:37:56;100719.00;;;20.58;67.57
3780;BME280;1905;52.482;9.802;2023-06-26T04:40:23;100713.63;;;20.58;67.54
3780;BME280;1905;52.482;9.802;2023-06-26T04:42:51;100718.03;;;20.59;67.65
3780;BME280;1905;52.482;9.802;2023-06-26T04:45:20;100709.13;;;20.59;67.87
3780;BME280;1905;52.482;9.802;2023-06-26T04:47:47;100710.81;;;20.60;70.82
3780;BME280;1905;52.482;9.802;2023-06-26T04:50:17;100708.00;;;20.61;70.25
3780;BME280;1905;52.482;9.802;2023-06-26T04:52:45;100705.91;;;20.65;70.27
3780;BME280;1905;52.482;9.802;2023-06-26T04:55:13;100704.09;;;20.65;71.72
3780;BME280;1905;52.482;9.802;2023-06-26T04:57:40;100700.13;;;20.69;71.52
3780;BME280;1905;52.482;9.802;2023-06-26T05:00:09;100697.91;;;20.74;72.60
3780;BME280;1905;52.482;9.802;2023-06-26T05:02:38;100696.22;;;20.73;71.00
3780;BME280;1905;52.482;9.802;2023-06-26T05:05:06;100695.69;;;20.79;72.89
3780;BME280;1905;52.482;9.802;2023-06-26T05:07:34;100694.72;;;20.81;71.50
3780;BME280;1905;52.482;9.802;2023-06-26T05:10:02;100685.38;;;20.85;72.96
3780;BME280;1905;52.482;9.802;2023-06-26T05:12:29;100691.94;;;20.92;73.51
3780;BME280;1905;52.482;9.802;2023-06-26T05:14:57;100687.88;;;20.97;72.93
3780;BME280;1905;52.482;9.802;2023-06-26T05:17:25;100688.75;;;20.98;72.36
3780;BME280;1905;52.482;9.802;2023-06-26T05:19:54;100682.97;;;21.02;72.46
3780;BME280;1905;52.482;9.802;2023-06-26T05:22:22;100686.84;;;21.09;73.48
3780;BME280;1905;52.482;9.802;2023-06-26T05:24:50;100680.63;;;21.09;72.51
3780;BME280;1905;52.482;9.802;2023-06-26T05:27:23;100683.50;;;21.17;71.68
3780;BME280;1905;52.482;9.802;2023-06-26T05:29:51;100683.94;;;21.22;73.64
3780;BME280;1905;52.482;9.802;2023-06-26T05:32:19;100679.97;;;21.26;73.46
3780;BME280;1905;52.482;9.802;2023-06-26T05:34:47;100675.06;;;21.31;71.71
3780;BME280;1905;52.482;9.802;2023-06-26T05:37:21;100668.16;;;21.38;73.10
3780;BME280;1905;52.482;9.802;2023-06-26T05:39:49;100675.09;;;21.41;72.54
3780;BME280;1905;52.482;9.802;2023-06-26T05:42:17;100660.97;;;21.48;72.66
3780;BME280;1905;52.482;9.802;2023-06-26T05:44:45;100662.41;;;21.52;72.21
3780;BME280;1905;52.482;9.802;2023-06-26T05:47:12;100664.41;;;21.60;73.10
3780;BME280;1905;52.482;9.802;2023-06-26T05:49:40;100662.16;;;21.65;73.34
3780;BME280;1905;52.482;9.802;2023-06-26T05:52:09;100666.13;;;21.70;72.21
3780;BME280;1905;52.482;9.802;2023-06-26T05:54:39;100663.59;;;21.78;72.06
3780;BME280;1905;52.482;9.802;2023-06-26T05:57:07;100666.47;;;21.86;72.54
3780;BME280;1905;52.482;9.802;2023-06-26T05:59:36;100663.94;;;21.94;72.18
3780;BME280;1905;52.482;9.802;2023-06-26T06:02:04;100663.38;;;22.01;71.35
3780;BME280;1905;52.482;9.802;2023-06-26T06:04:32;100664.22;;;22.11;71.40
3780;BME280;1905;52.482;9.802;2023-06-26T06:06:59;100667.06;;;22.19;71.18
3780;BME280;1905;52.482;9.802;2023-06-26T06:09:27;100661.81;;;22.27;69.65
3780;BME280;1905;52.482;9.802;2023-06-26T06:11:56;100662.81;;;22.35;70.04
3780;BME280;1905;52.482;9.802;2023-06-26T06:14:24;100658.25;;;22.45;70.25
3780;BME280;1905;52.482;9.802;2023-06-26T06:16:51;100650.31;;;22.53;69.79
3780;BME280;1905;52.482;9.802;2023-06-26T06:19:19;100651.47;;;22.61;69.40
3780;BME280;1905;52.482;9.802;2023-06-26T06:21:46;100658.56;;;22.71;68.76
3780;BME280;1905;52.482;9.802;2023-06-26T06:24:14;100650.88;;;22.76;68.83
3780;BME280;1905;52.482;9.802;2023-06-26T06:26:41;100651.41;;;22.89;68.48
3780;BME280;1905;52.482;9.802;2023-06-26T06:29:10;100650.66;;;22.97;67.52
3780;BME280;1905;52.482;9.802;2023-06-26T06:31:38;100650.34;;;23.09;67.79
3780;BME280;1905;52.482;9.802;2023-06-26T06:34:06;100650.16;;;23.21;67.38
3780;BME280;1905;52.482;9.802;2023-06-26T06:36:33;100636.78;;;23.29;66.38
3780;BME280;1905;52.482;9.802;2023-06-26T06:39:01;100640.75;;;23.34;66.16
3780;BME280;1905;52.482;9.802;2023-06-26T06:41:29;100644.41;;;23.43;65.50
3780;BME280;1905;52.482;9.802;2023-06-26T06:43:57;100650.59;;;23.53;65.42
3780;BME280;1905;52.482;9.802;2023-06-26T06:46:25;100649.69;;;23.62;64.71
3780;BME280;1905;52.482;9.802;2023-06-26T06:48:53;100648.47;;;23.74;64.05
3780;BME280;1905;52.482;9.802;2023-06-26T06:51:21;100650.09;;;23.85;63.81
3780;BME280;1905;52.482;9.802;2023-06-26T06:53:49;100647.66;;;23.91;63.84
3780;BME280;1905;52.482;9.802;2023-06-26T06:56:16;100648.03;;;23.96;64.06
3780;BME280;1905;52.482;9.802;2023-06-26T06:58:44;100652.19;;;24.08;63.84
3780;BME280;1905;52.482;9.802;2023-06-26T07:01:12;100643.53;;;24.14;63.81
3780;BME280;1905;52.482;9.802;2023-06-26T07:03:41;100646.97;;;24.24;63.62
3780;BME280;1905;52.482;9.802;2023-06-26T07:06:10;100649.75;;;24.33;62.93
3780;BME280;1905;52.482;9.802;2023-06-26T07:08:37;100648.81;;;24.42;63.01
3780;BME280;1905;52.482;9.802;2023-06-26T07:11:05;100640.09;;;24.48;62.87
3780;BME280;1905;52.482;9.802;2023-06-26T07:13:32;100646.56;;;24.55;63.13
3780;BME280;1905;52.482;9.802;2023-06-26T07:16:00;100647.63;;;24.62;62.99
3780;BME280;1905;52.482;9.802;2023-06-26T07:18:28;100649.06;;;24.74;62.87
3780;BME280;1905;52.482;9.802;2023-06-26T07:20:57;100651.53;;;24.85;62.74
3780;BME280;1905;52.482;9.802;2023-06-26T07:23:24;100647.72;;;24.96;61.71
3780;BME280;1905;52.482;9.802;2023-06-26T07:25:52;100641.19;;;25.06;61.58
3780;BME280;1905;52.482;9.802;2023-06-26T07:28:19;100647.16;;;25.18;61.07
3780;BME280;1905;52.482;9.802;2023-06-26T07:30:47;100635.72;;;25.24;59.49
3780;BME280;1905;52.482;9.802;2023-06-26T07:33:14;100640.28;;;25.31;59.44
3780;BME280;1905;52.482;9.802;2023-06-26T07:35:42;100650.81;;;25.42;59.27
3780;BME280;1905;52.482;9.802;2023-06-26T07:38:11;100639.75;;;25.54;59.29
3780;BME280;1905;52.482;9.802;2023-06-26T07:40:39;100648.22;;;25.67;58.78
3780;BME280;1905;52.482;9.802;2023-06-26T07:43:07;100644.53;;;25.76;58.71
3780;BME280;1905;52.482;9.802;2023-06-26T07:45:34;100646.94;;;25.87;58.12
3780;BME280;1905;52.482;9.802;2023-06-26T07:48:02;100652.72;;;26.00;57.76
3780;BME280;1905;52.482;9.802;2023-06-26T07:50:30;100646.34;;;26.17;58.24
3780;BME280;1905;52.482;9.802;2023-06-26T07:52:57;100643.28;;;26.28;57.94
3780;BME280;1905;52.482;9.802;2023-06-26T07:55:26;100644.84;;;26.39;56.82
3780;BME280;1905;52.482;9.802;2023-06-26T07:57:54;100649.38;;;26.54;56.82
3780;BME280;1905;52.482;9.802;2023-06-26T08:00:22;100644.97;;;26.70;57.09
3780;BME280;1905;52.482;9.802;2023-06-26T08:02:52;100645.63;;;26.72;55.83
3780;BME280;1905;52.482;9.802;2023-06-26T08:05:19;100643.41;;;26.99;57.08
3780;BME280;1905;52.482;9.802;2023-06-26T08:07:47;100646.78;;;27.09;55.98
3780;BME280;1905;52.482;9.802;2023-06-26T08:10:15;100639.63;;;27.16;54.45
3780;BME280;1905;52.482;9.802;2023-06-26T08:12:44;100639.22;;;27.36;55.82
3780;BME280;1905;52.482;9.802;2023-06-26T08:15:13;100637.00;;;27.47;53.81
3780;BME280;1905;52.482;9.802;2023-06-26T08:17:45;100637.59;;;27.65;53.72
3780;BME280;1905;52.482;9.802;2023-06-26T08:20:13;100639.25;;;27.74;53.89
3780;BME280;1905;52.482;9.802;2023-06-26T08:22:41;100637.38;;;27.98;54.15
3780;BME280;1905;52.482;9.802;2023-06-26T08:25:09;100634.78;;;28.12;54.47
3780;BME280;1905;52.482;9.802;2023-06-26T08:27:36;100630.47;;;28.18;53.94
3780;BME280;1905;52.482;9.802;2023-06-26T08:30:06;100623.22;;;28.33;54.16
3780;BME280;1905;52.482;9.802;2023-06-26T08:32:34;100623.31;;;28.62;55.12
3780;BME280;1905;52.482;9.802;2023-06-26T08:35:02;100614.34;;;28.76;54.29
3780;BME280;1905;52.482;9.802;2023-06-26T08:37:30;100614.91;;;28.86;53.94
3780;BME280;1905;52.482;9.802;2023-06-26T08:39:59;100622.41;;;28.84;52.35
3780;BME280;1905;52.482;9.802;2023-06-26T08:42:27;100621.09;;;29.10;51.66
3780;BME280;1905;52.482;9.802;2023-06-26T08:44:55;100632.84;;;29.25;51.99
3780;BME280;1905;52.482;9.802;2023-06-26T08:47:30;100631.25;;;29.45;51.93
3780;BME280;1905;52.482;9.802;2023-06-26T08:50:02;100632.72;;;29.62;51.19
3780;BME280;1905;52.482;9.802;2023-06-26T08:52:35;100654.56;;;29.69;49.90
3780;BME280;1905;52.482;9.802;2023-06-26T08:55:06;100661.31;;;29.87;52.08
3780;BME280;1905;52.482;9.802;2023-06-26T08:57:36;100671.72;;;29.98;50.72
3780;BME280;1905;52.482;9.802;2023-06-26T09:00:06;100672.03;;;29.89;50.23
3780;BME280;1905;52.482;9.802;2023-06-26T09:02:36;100678.88;;;29.99;49.72
3780;BME280;1905;52.482;9.802;2023-06-26T09:05:05;100686.66;;;30.24;50.81
3780;BME280;1905;52.482;9.802;2023-06-26T09:07:32;100675.16;;;30.43;49.97
3780;BME280;1905;52.482;9.802;2023-06-26T09:10:00;100674.38;;;30.49;49.90
3780;BME280;1905;52.482;9.802;2023-06-26T09:12:28;100672.41;;;30.64;49.96
3780;BME280;1905;52.482;9.802;2023-06-26T09:14:56;100691.75;;;30.69;50.17
3780;BME280;1905;52.482;9.802;2023-06-26T09:17:24;100674.09;;;30.65;48.38
3780;BME280;1905;52.482;9.802;2023-06-26T09:19:54;100680.50;;;30.79;49.36
3780;BME280;1905;52.482;9.802;2023-06-26T09:22:22;100679.59;;;30.72;48.20
3780;BME280;1905;52.482;9.802;2023-06-26T09:24:51;100703.44;;;30.63;48.63
3780;BME280;1905;52.482;9.802;2023-06-26T09:27:18;100689.84;;;30.70;49.31
3780;BME280;1905;52.482;9.802;2023-06-26T09:29:46;100678.06;;;30.90;49.44
3780;BME280;1905;52.482;9.802;2023-06-26T09:32:14;100686.53;;;30.95;49.05
3780;BME280;1905;52.482;9.802;2023-06-26T09:34:42;100690.41;;;31.07;50.48
3780;BME280;1905;52.482;9.802;2023-06-26T09:37:12;100687.66;;;31.07;50.36
3780;BME280;1905;52.482;9.802;2023-06-26T09:39:40;100683.91;;;31.08;49.95
3780;BME280;1905;52.482;9.802;2023-06-26T09:42:08;100693.13;;;31.07;49.21
3780;BME280;1905;52.482;9.802;2023-06-26T09:44:36;100714.16;;;31.13;49.26
3780;BME280;1905;52.482;9.802;2023-06-26T09:47:03;100715.31;;;30.98;48.57
3780;BME280;1905;52.482;9.802;2023-06-26T09:49:31;100723.31;;;30.78;48.55
3780;BME280;1905;52.482;9.802;2023-06-26T09:52:00;100712.34;;;30.93;48.57
3780;BME280;1905;52.482;9.802;2023-06-26T09:54:29;100703.78;;;31.02;49.68
3780;BME280;1905;52.482;9.802;2023-06-26T09:57:06;100712.78;;;30.96;49.34
3780;BME280;1905;52.482;9.802;2023-06-26T09:59:35;100712.88;;;30.88;48.30
3780;BME280;1905;52.482;9.802;2023-06-26T10:02:03;100730.97;;;30.89;48.34
3780;BME280;1905;52.482;9.802;2023-06-26T10:04:31;100725.16;;;30.71;48.50
3780;BME280;1905;52.482;9.802;2023-06-26T10:07:02;100734.28;;;30.85;49.18
3780;BME280;1905;52.482;9.802;2023-06-26T10:09:33;100744.34;;;30.84;49.05
3780;BME280;1905;52.482;9.802;2023-06-26T10:12:06;100747.06;;;30.63;49.05
3780;BME280;1905;52.482;9.802;2023-06-26T10:14:36;100760.69;;;30.42;49.49
3780;BME280;1905;52.482;9.802;2023-06-26T10:17:08;100761.84;;;30.33;49.67
3780;BME280;1905;52.482;9.802;2023-06-26T10:19:38;100765.84;;;30.16;49.30
3780;BME280;1905;52.482;9.802;2023-06-26T10:22:07;100776.50;;;30.32;49.97
3780;BME280;1905;52.482;9.802;2023-06-26T10:24:36;100777.13;;;30.13;49.59
3780;BME280;1905;52.482;9.802;2023-06-26T10:27:14;100762.28;;;30.00;50.20
3780;BME280;1905;52.482;9.802;2023-06-26T10:29:43;100784.66;;;29.96;50.04
3780;BME280;1905;52.482;9.802;2023-06-26T10:32:12;100791.88;;;29.74;50.61
3780;BME280;1905;52.482;9.802;2023-06-26T10:34:40;100796.75;;;29.64;50.88
3780;BME280;1905;52.482;9.802;2023-06-26T10:37:09;100835.41;;;29.45;50.78
3780;BME280;1905;52.482;9.802;2023-06-26T10:39:48;100851.22;;;29.04;52.54
3780;BME280;1905;52.482;9.802;2023-06-26T10:42:17;100862.84;;;29.21;51.80
3780;BME280;1905;52.482;9.802;2023-06-26T10:44:46;100846.50;;;29.21;52.12
3780;BME280;1905;52.482;9.802;2023-06-26T10:47:29;100853.78;;;29.28;51.72
3780;BME280;1905;52.482;9.802;2023-06-26T10:50:16;100847.09;;;29.08;51.96
3780;BME280;1905;52.482;9.802;2023-06-26T10:53:12;100843.69;;;28.91;52.51
3780;BME280;1905;52.482;9.802;2023-06-26T10:55:43;100841.19;;;28.82;52.19
3780;BME280;1905;52.482;9.802;2023-06-26T10:58:27;100836.00;;;28.72;52.40
3780;BME280;1905;52.482;9.802;2023-06-26T11:01:14;100841.63;;;28.40;53.58
3780;BME280;1905;52.482;9.802;2023-06-26T11:03:44;100846.00;;;28.41;53.46
3780;BME280;1905;52.482;9.802;2023-06-26T11:06:13;100845.69;;;28.36;53.98
3780;BME280;1905;52.482;9.802;2023-06-26T11:08:45;100849.78;;;28.32;54.93
3780;BME280;1905;52.482;9.802;2023-06-26T11:11:14;100839.28;;;28.29;55.12
3780;BME280;1905;52.482;9.802;2023-06-26T11:13:45;100840.25;;;28.36;54.88
3780;BME280;1905;52.482;9.802;2023-06-26T11:16:14;100833.63;;;28.39;54.69
3780;BME280;1905;52.482;9.802;2023-06-26T11:18:42;100837.22;;;28.31;55.40
3780;BME280;1905;52.482;9.802;2023-06-26T11:21:12;100845.03;;;28.34;55.42
3780;BME280;1905;52.482;9.802;2023-06-26T11:23:41;100845.50;;;28.38;55.31
3780;BME280;1905;52.482;9.802;2023-06-26T11:26:17;100842.31;;;28.34;55.34
3780;BME280;1905;52.482;9.802;2023-06-26T11:28:49;100840.91;;;28.38;55.34
3780;BME280;1905;52.482;9.802;2023-06-26T11:31:26;100837.84;;;28.41;54.53
3780;BME280;1905;52.482;9.802;2023-06-26T11:33:57;100841.13;;;28.37;54.99
3780;BME280;1905;52.482;9.802;2023-06-26T11:36:25;100845.72;;;28.28;55.12
3780;BME280;1905;52.482;9.802;2023-06-26T11:38:53;100847.25;;;28.30;54.76
3780;BME280;1905;52.482;9.802;2023-06-26T11:41:25;100855.22;;;28.32;54.73
3780;BME280;1905;52.482;9.802;2023-06-26T11:43:53;100856.25;;;28.31;54.41
3780;BME280;1905;52.482;9.802;2023-06-26T11:46:22;100862.03;;;28.28;54.55
3780;BME280;1905;52.482;9.802;2023-06-26T11:48:50;100862.44;;;28.17;54.75
3780;BME280;1905;52.482;9.802;2023-06-26T11:51:18;100861.88;;;28.21;54.45
3780;BME280;1905;52.482;9.802;2023-06-26T11:53:47;100871.59;;;28.16;55.06
3780;BME280;1905;52.482;9.802;2023-06-26T11:56:16;100876.72;;;28.03;54.06
3780;BME280;1905;52.482;9.802;2023-06-26T11:58:59;100890.19;;;27.80;54.87
3780;BME280;1905;52.482;9.802;2023-06-26T12:01:27;100879.81;;;27.75;54.06
3780;BME280;1905;52.482;9.802;2023-06-26T12:03:59;100883.94;;;27.71;53.48
3780;BME280;1905;52.482;9.802;2023-06-26T12:06:31;100883.94;;;27.71;53.49
3780;BME280;1905;52.482;9.802;2023-06-26T12:09:00;100894.28;;;27.68;53.01
3780;BME280;1905;52.482;9.802;2023-06-26T12:11:30;100882.22;;;27.70;53.30
3780;BME280;1905;52.482;9.802;2023-06-26T12:14:00;100887.84;;;27.69;53.37
3780;BME280;1905;52.482;9.802;2023-06-26T12:16:28;100884.28;;;27.36;53.20
3780;BME280;1905;52.482;9.802;2023-06-26T12:18:58;100888.00;;;27.35;52.74
3780;BME280;1905;52.482;9.802;2023-06-26T12:21:44;100891.06;;;27.48;53.11
3780;BME280;1905;52.482;9.802;2023-06-26T12:24:14;100894.09;;;27.53;53.58
3780;BME280;1905;52.482;9.802;2023-06-26T12:26:43;100888.31;;;27.64;53.30
3780;BME280;1905;52.482;9.802;2023-06-26T12:29:14;100882.72;;;27.74;52.43
3780;BME280;1905;52.482;9.802;2023-06-26T12:31:44;100884.78;;;27.56;52.68
3780;BME280;1905;52.482;9.802;2023-06-26T12:34:13;100880.88;;;27.66;52.78
3780;BME280;1905;52.482;9.802;2023-06-26T12:36:46;100880.69;;;27.76;52.64
3780;BME280;1905;52.482;9.802;2023-06-26T12:39:16;100883.22;;;27.69;52.08
3780;BME280;1905;52.482;9.802;2023-06-26T12:41:48;100893.06;;;27.78;52.96
3780;BME280;1905;52.482;9.802;2023-06-26T12:44:21;100899.91;;;27.58;53.10
3780;BME280;1905;52.482;9.802;2023-06-26T12:46:49;100889.69;;;27.68;53.17
3780;BME280;1905;52.482;9.802;2023-06-26T12:49:50;100892.72;;;27.73;52.76
3780;BME280;1905;52.482;9.802;2023-06-26T12:52:18;100885.28;;;27.67;52.96
3780;BME280;1905;52.482;9.802;2023-06-26T12:54:50;100883.88;;;27.88;52.47
3780;BME280;1905;52.482;9.802;2023-06-26T12:57:18;100888.63;;;27.94;52.33
3780;BME280;1905;52.482;9.802;2023-06-26T12:59:47;100880.81;;;27.99;52.32
3780;BME280;1905;52.482;9.802;2023-06-26T13:02:15;100889.31;;;28.04;52.12
3780;BME280;1905;52.482;9.802;2023-06-26T13:04:43;100886.75;;;28.02;51.54
3780;BME280;1905;52.482;9.802;2023-06-26T13:07:11;100882.44;;;28.16;51.50
3780;BME280;1905;52.482;9.802;2023-06-26T13:09:39;100878.03;;;28.23;51.94
3780;BME280;1905;52.482;9.802;2023-06-26T13:12:08;100880.72;;;28.31;51.71
3780;BME280;1905;52.482;9.802;2023-06-26T13:14:36;100875.28;;;28.31;51.46
3780;BME280;1905;52.482;9.802;2023-06-26T13:17:06;100873.84;;;28.43;51.28
3780;BME280;1905;52.482;9.802;2023-06-26T13:19:35;100875.25;;;28.39;50.95
3780;BME280;1905;52.482;9.802;2023-06-26T13:22:03;100872.88;;;28.36;50.07
3780;BME280;1905;52.482;9.802;2023-06-26T13:24:31;100868.06;;;28.46;50.69